createdAt,value
2023-02-19T00:02:06.246Z,77.04
2023-02-19T00:04:35.127Z,77.37
2023-02-19T00:07:04.922Z,77.73
2023-02-19T00:09:33.373Z,77.47
2023-02-19T00:12:01.902Z,77.95
2023-02-19T00:14:30.811Z,76.81
2023-02-19T00:16:59.823Z,76.74
2023-02-19T00:19:29.624Z,77.37
2023-02-19T00:21:58.203Z,77.19
2023-02-19T00:24:27.993Z,77.22
2023-02-19T00:26:56.550Z,76.44
2023-02-19T00:29:25.312Z,76.54
2023-02-19T00:31:53.908Z,76.42
2023-02-19T00:34:22.514Z,76.17
2023-02-19T00:36:52.822Z,76.74
2023-02-19T00:39:21.532Z,76.81
2023-02-19T00:41:51.321Z,76.73
2023-02-19T00:44:19.728Z,76.67
2023-02-19T00:46:50.207Z,76.90
2023-02-19T00:49:21.029Z,77.13
2023-02-19T00:51:49.721Z,77.06
2023-02-19T00:54:18.269Z,76.10
2023-02-19T00:56:52.284Z,76.30
2023-02-19T00:59:20.614Z,76.05
2023-02-19T01:01:49.754Z,75.63
2023-02-19T01:04:18.800Z,75.08
2023-02-19T01:06:48.960Z,75.32
2023-02-19T01:09:17.377Z,75.35
2023-02-19T01:11:46.014Z,75.01
2023-02-19T01:14:15.759Z,74.30
2023-02-19T01:16:44.761Z,73.79
2023-02-19T01:19:13.399Z,73.72
2023-02-19T01:21:41.814Z,74.20
2023-02-19T01:24:11.130Z,73.82
2023-02-19T01:26:40.464Z,72.99
2023-02-19T01:29:09.017Z,72.74
2023-02-19T01:31:41.057Z,72.89
2023-02-19T01:34:11.663Z,73.67
2023-02-19T01:36:40.681Z,73.60
2023-02-19T01:39:09.521Z,72.90
2023-02-19T01:41:39.703Z,73.32
2023-02-19T01:44:11.468Z,73.42
2023-02-19T01:46:42.316Z,73.35
2023-02-19T01:49:15.192Z,73.93
2023-02-19T01:51:47.576Z,73.05
2023-02-19T01:54:17.679Z,73.46
2023-02-19T01:56:47.011Z,74.01
2023-02-19T01:59:15.881Z,73.56
2023-02-19T02:01:47.153Z,73.67
2023-02-19T02:04:16.277Z,74.05
2023-02-19T02:06:48.031Z,74.33
2023-02-19T02:09:35.798Z,74.91
2023-02-19T02:12:04.303Z,74.66
2023-02-19T02:14:36.433Z,75.12
2023-02-19T02:17:13.053Z,75.51
2023-02-19T02:20:03.307Z,74.98
2023-02-19T02:22:36.527Z,75.34
2023-02-19T02:25:22.081Z,75.50
2023-02-19T02:27:56.774Z,76.31
2023-02-19T02:30:43.324Z,75.94
2023-02-19T02:33:18.745Z,76.31
2023-02-19T02:35:50.511Z,76.31
2023-02-19T02:38:23.025Z,75.44
2023-02-19T02:40:51.833Z,76.40
2023-02-19T02:43:20.330Z,77.94
2023-02-19T02:45:50.320Z,78.15
2023-02-19T02:48:30.057Z,79.20
2023-02-19T02:51:02.135Z,79.18
2023-02-19T02:54:09.385Z,78.50
2023-02-19T02:56:37.953Z,79.29
2023-02-19T02:59:09.106Z,78.77
2023-02-19T03:01:59.395Z,79.84
2023-02-19T03:04:34.257Z,79.10
2023-02-19T03:07:07.422Z,78.68
2023-02-19T03:09:40.708Z,79.16
2023-02-19T03:12:31.746Z,77.65
2023-02-19T03:15:21.298Z,77.40
2023-02-19T03:18:13.931Z,76.98
2023-02-19T03:20:45.716Z,76.90
2023-02-19T03:23:16.804Z,77.28
2023-02-19T03:26:02.818Z,77.34
2023-02-19T03:29:04.505Z,79.60
2023-02-19T03:31:34.369Z,79.82
2023-02-19T03:34:09.697Z,79.50
2023-02-19T03:36:43.653Z,80.09
2023-02-19T03:39:14.370Z,80.56
2023-02-19T03:41:49.348Z,81.31
2023-02-19T03:44:20.599Z,82.07
2023-02-19T03:46:55.170Z,81.77
2023-02-19T03:49:29.070Z,82.34
2023-02-19T03:52:03.580Z,81.92
2023-02-19T03:54:36.530Z,81.44
2023-02-19T03:57:08.406Z,82.88
2023-02-19T03:59:40.028Z,82.50
2023-02-19T04:02:11.363Z,83.55
2023-02-19T04:04:45.720Z,83.62
2023-02-19T04:07:14.417Z,83.96
2023-02-19T04:09:46.720Z,85.40
2023-02-19T04:12:19.124Z,86.10
2023-02-19T04:14:53.837Z,87.09
2023-02-19T04:17:26.250Z,86.56
2023-02-19T04:19:56.324Z,86.77
2023-02-19T04:22:24.699Z,85.76
2023-02-19T04:24:55.536Z,85.95
2023-02-19T04:27:23.864Z,86.73
2023-02-19T04:29:52.070Z,85.96
2023-02-19T04:32:20.738Z,85.75
2023-02-19T04:34:49.002Z,85.88
2023-02-19T04:37:18.514Z,85.93
2023-02-19T04:39:46.988Z,85.15
2023-02-19T04:42:15.254Z,85.51
2023-02-19T04:44:43.718Z,85.31
2023-02-19T04:47:12.165Z,86.09
2023-02-19T04:49:40.461Z,86.29
2023-02-19T04:52:08.806Z,86.52
2023-02-19T04:54:38.811Z,86.32
2023-02-19T04:57:07.105Z,86.36
2023-02-19T04:59:35.445Z,86.21
2023-02-19T05:02:04.152Z,86.67
2023-02-19T05:04:32.796Z,86.29
2023-02-19T05:07:01.204Z,86.16
2023-02-19T05:09:30.015Z,85.78
2023-02-19T05:11:59.765Z,85.27
2023-02-19T05:14:27.996Z,84.97
2023-02-19T05:16:56.283Z,84.94
2023-02-19T05:19:24.601Z,85.44
2023-02-19T05:21:52.867Z,86.15
2023-02-19T05:24:21.137Z,86.29
2023-02-19T05:26:49.407Z,86.57
2023-02-19T05:29:19.048Z,86.40
2023-02-19T05:31:47.459Z,85.90
2023-02-19T05:34:15.904Z,86.28
2023-02-19T05:36:44.157Z,86.57
2023-02-19T05:39:13.208Z,86.49
2023-02-19T05:41:41.513Z,87.28
2023-02-19T05:44:11.567Z,86.61
2023-02-19T05:46:41.600Z,86.88
2023-02-19T05:49:09.887Z,87.53
2023-02-19T05:51:38.183Z,87.05
2023-02-19T05:54:06.884Z,86.96
2023-02-19T05:56:36.536Z,88.43
2023-02-19T05:59:07.941Z,89.32
2023-02-19T06:01:37.042Z,89.81
2023-02-19T06:04:06.873Z,90.05
2023-02-19T06:06:35.296Z,90.87
2023-02-19T06:09:03.710Z,92.19
2023-02-19T06:11:32.249Z,92.38
2023-02-19T06:14:00.650Z,92.52
2023-02-19T06:16:29.364Z,92.35
2023-02-19T06:18:57.891Z,92.89
2023-02-19T06:21:27.622Z,92.90
2023-02-19T06:23:55.977Z,93.12
2023-02-19T06:26:25.767Z,92.13
2023-02-19T06:28:55.017Z,92.73
2023-02-19T06:31:23.991Z,92.70
2023-02-19T06:33:52.442Z,92.20
2023-02-19T06:36:21.930Z,92.51
2023-02-19T06:38:52.644Z,92.19
2023-02-19T06:41:21.022Z,91.42
2023-02-19T06:43:49.594Z,91.15
2023-02-19T06:46:18.015Z,91.33
2023-02-19T06:48:46.886Z,91.05
2023-02-19T06:51:18.807Z,92.47
2023-02-19T06:53:48.278Z,92.54
2023-02-19T06:56:27.114Z,93.20
2023-02-19T06:58:57.713Z,92.88
2023-02-19T07:01:26.508Z,93.26
2023-02-19T07:03:54.869Z,93.25
2023-02-19T07:06:24.659Z,94.10
2023-02-19T07:08:53.685Z,95.44
2023-02-19T07:11:22.124Z,96.00
2023-02-19T07:13:55.882Z,96.30
2023-02-19T07:16:24.782Z,97.27
2023-02-19T07:18:53.476Z,97.27
2023-02-19T07:21:21.792Z,97.33
2023-02-19T07:23:50.110Z,98.78
2023-02-19T07:26:19.918Z,97.62
2023-02-19T07:28:49.622Z,97.74
2023-02-19T07:31:20.875Z,97.90
2023-02-19T07:33:49.459Z,98.19
2023-02-19T07:36:19.118Z,98.27
2023-02-19T07:38:47.933Z,98.50
2023-02-19T07:41:16.323Z,98.82
2023-02-19T07:43:44.832Z,97.85
2023-02-19T07:46:14.827Z,99.93
2023-02-19T07:48:45.530Z,99.11
2023-02-19T07:51:16.593Z,98.23
2023-02-19T07:53:45.017Z,98.39
2023-02-19T07:56:14.035Z,96.88
2023-02-19T07:58:42.512Z,96.29
2023-02-19T08:01:12.482Z,96.63
2023-02-19T08:03:40.391Z,96.12
2023-02-19T08:06:11.660Z,95.70
2023-02-19T08:08:40.493Z,95.48
2023-02-19T08:11:26.807Z,94.71
2023-02-19T08:13:55.633Z,94.05
2023-02-19T08:16:40.636Z,92.55
2023-02-19T08:19:10.958Z,93.66
2023-02-19T08:21:40.929Z,92.42
2023-02-19T08:24:09.359Z,92.55
2023-02-19T08:26:38.219Z,93.38
2023-02-19T08:29:07.016Z,94.07
2023-02-19T08:31:36.392Z,95.06
2023-02-19T08:34:04.875Z,93.51
2023-02-19T08:36:33.269Z,93.01
2023-02-19T08:39:03.012Z,91.89
2023-02-19T08:41:31.694Z,92.06
2023-02-19T08:44:00.116Z,91.34
2023-02-19T08:46:28.448Z,89.43
2023-02-19T08:48:56.730Z,90.08
2023-02-19T08:51:25.072Z,89.81
2023-02-19T08:53:53.378Z,89.06
2023-02-19T08:56:23.175Z,89.23
2023-02-19T08:58:51.606Z,88.24
2023-02-19T09:01:20.086Z,88.55
2023-02-19T09:03:48.622Z,87.95
2023-02-19T09:06:19.379Z,87.54
2023-02-19T09:08:48.438Z,86.75
2023-02-19T09:11:16.836Z,88.26
2023-02-19T09:13:46.586Z,86.04
2023-02-19T09:16:15.078Z,84.57
2023-02-19T09:18:45.967Z,83.74
2023-02-19T09:21:14.404Z,83.36
2023-02-19T09:23:42.851Z,83.75
2023-02-19T09:26:11.611Z,81.96
2023-02-19T09:28:41.976Z,82.75
2023-02-19T09:31:14.002Z,82.78
2023-02-19T09:33:45.879Z,83.00
2023-02-19T09:36:15.180Z,82.34
2023-02-19T09:38:43.617Z,81.90
2023-02-19T09:41:18.649Z,82.12
2023-02-19T09:43:47.493Z,81.53
2023-02-19T09:46:25.922Z,78.72
2023-02-19T09:48:54.941Z,77.94
2023-02-19T09:51:23.603Z,78.07
2023-02-19T09:53:52.413Z,78.59
2023-02-19T09:56:20.794Z,78.37
2023-02-19T09:58:50.259Z,77.74
2023-02-19T10:01:20.556Z,77.68
2023-02-19T10:03:49.959Z,77.73
2023-02-19T10:06:21.872Z,77.67
2023-02-19T10:08:51.474Z,76.35
2023-02-19T10:11:20.350Z,78.34
2023-02-19T10:13:51.299Z,76.86
2023-02-19T10:16:24.125Z,76.54
2023-02-19T10:18:52.575Z,75.69
2023-02-19T10:21:23.401Z,74.86
2023-02-19T10:23:55.382Z,73.56
2023-02-19T10:26:23.945Z,72.97
2023-02-19T10:28:54.222Z,72.91
2023-02-19T10:31:26.937Z,73.57
2023-02-19T10:33:57.159Z,72.12
2023-02-19T10:36:32.184Z,72.66
2023-02-19T10:39:02.148Z,73.04
2023-02-19T10:41:31.292Z,74.12
2023-02-19T10:44:15.628Z,73.72
2023-02-19T10:46:47.182Z,73.71
2023-02-19T10:49:23.935Z,72.80
2023-02-19T10:51:53.805Z,72.37
2023-02-19T10:54:26.675Z,73.30
2023-02-19T10:56:55.272Z,73.22
2023-02-19T10:59:25.986Z,73.68
2023-02-19T11:02:00.982Z,72.70
2023-02-19T11:04:34.120Z,71.50
2023-02-19T11:07:10.510Z,73.28
2023-02-19T11:09:40.396Z,73.20
2023-02-19T11:12:09.668Z,71.22
2023-02-19T11:14:38.074Z,70.81
2023-02-19T11:17:07.826Z,69.09
2023-02-19T11:19:39.027Z,69.50
2023-02-19T11:22:21.050Z,69.70
2023-02-19T11:24:51.783Z,70.66
2023-02-19T11:27:22.733Z,69.51
2023-02-19T11:29:51.151Z,69.82
2023-02-19T11:32:29.395Z,69.98
2023-02-19T11:35:19.621Z,70.95
2023-02-19T11:37:59.152Z,67.78
2023-02-19T11:40:37.508Z,69.26
2023-02-19T11:43:14.139Z,70.02
2023-02-19T11:45:48.393Z,68.90
2023-02-19T11:48:31.842Z,69.89
2023-02-19T11:51:11.572Z,69.30
2023-02-19T11:53:44.217Z,69.72
2023-02-19T11:56:17.293Z,69.27
2023-02-19T11:58:55.916Z,70.03
2023-02-19T12:01:32.134Z,69.35
2023-02-19T12:04:28.353Z,69.16
2023-02-19T12:07:04.490Z,68.30
2023-02-19T12:09:41.344Z,67.86
2023-02-19T12:12:18.723Z,69.04
2023-02-19T12:15:08.737Z,70.26
2023-02-19T12:18:04.247Z,68.86
2023-02-19T12:20:39.112Z,69.87
2023-02-19T12:23:30.283Z,69.98
2023-02-19T12:26:02.969Z,70.24
2023-02-19T12:28:47.738Z,69.11
2023-02-19T12:31:41.314Z,68.65
2023-02-19T12:34:24.065Z,68.20
2023-02-19T12:37:03.817Z,70.27
2023-02-19T12:39:40.690Z,68.20
2023-02-19T12:42:12.946Z,68.81
2023-02-19T12:44:44.080Z,69.31
2023-02-19T12:47:18.920Z,68.14
2023-02-19T12:49:49.639Z,67.80
2023-02-19T12:52:21.813Z,69.08
2023-02-19T12:54:54.824Z,69.77
2023-02-19T12:57:26.981Z,68.48
2023-02-19T13:00:00.259Z,67.67
2023-02-19T13:02:35.011Z,68.00
2023-02-19T13:05:06.933Z,67.44
2023-02-19T13:07:39.906Z,68.21
2023-02-19T13:10:26.481Z,67.58
2023-02-19T13:12:56.373Z,67.39
2023-02-19T13:15:31.020Z,66.13
2023-02-19T13:18:01.640Z,65.15
2023-02-19T13:20:33.141Z,67.90
2023-02-19T13:23:26.393Z,65.37
2023-02-19T13:26:19.098Z,66.28
2023-02-19T13:28:59.607Z,64.40
2023-02-19T13:31:49.854Z,64.47
2023-02-19T13:34:26.996Z,64.82
2023-02-19T13:36:55.761Z,65.15
2023-02-19T13:39:25.344Z,65.14
2023-02-19T13:41:55.887Z,65.04
2023-02-19T13:44:26.805Z,64.59
2023-02-19T13:46:55.375Z,64.46
2023-02-19T13:49:43.150Z,63.83
2023-02-19T13:52:39.132Z,64.79
2023-02-19T13:55:48.649Z,63.99
2023-02-19T13:58:36.457Z,62.97
2023-02-19T14:01:07.110Z,64.92
2023-02-19T14:03:47.908Z,64.01
2023-02-19T14:06:16.200Z,64.40
2023-02-19T14:08:52.623Z,64.60
2023-02-19T14:12:00.725Z,63.70
2023-02-19T14:14:30.116Z,63.15
2023-02-19T14:17:07.671Z,63.99
2023-02-19T14:19:52.173Z,64.75
2023-02-19T14:22:51.384Z,64.19
2023-02-19T14:25:28.602Z,64.04
2023-02-19T14:28:02.416Z,63.70
2023-02-19T14:30:31.679Z,65.29
2023-02-19T14:33:10.279Z,64.24
2023-02-19T14:35:42.438Z,65.93
2023-02-19T14:38:17.885Z,64.67
2023-02-19T14:40:47.364Z,65.17
2023-02-19T14:43:19.434Z,65.75
2023-02-19T14:45:50.184Z,65.12
2023-02-19T14:48:21.606Z,64.70
2023-02-19T14:50:52.069Z,65.42
2023-02-19T14:53:21.998Z,64.77
2023-02-19T14:55:51.207Z,63.43
2023-02-19T14:58:23.997Z,63.61
2023-02-19T15:00:52.340Z,61.09
2023-02-19T15:03:38.570Z,62.91
2023-02-19T15:06:08.950Z,63.77
2023-02-19T15:08:39.571Z,63.65
2023-02-19T15:11:11.698Z,64.35
2023-02-19T15:13:45.678Z,63.95
2023-02-19T15:16:25.931Z,62.46
2023-02-19T15:18:54.875Z,61.93
2023-02-19T15:21:25.636Z,62.60
2023-02-19T15:23:56.073Z,63.26
2023-02-19T15:26:26.943Z,63.69
2023-02-19T15:29:01.138Z,64.26
2023-02-19T15:31:29.712Z,63.51
2023-02-19T15:34:24.273Z,63.22
2023-02-19T15:36:56.513Z,63.68
2023-02-19T15:39:26.416Z,63.82
2023-02-19T15:41:59.921Z,62.67
2023-02-19T15:45:17.199Z,61.29
2023-02-19T15:47:47.266Z,60.56
2023-02-19T15:50:17.310Z,60.66
2023-02-19T15:52:49.011Z,61.79
2023-02-19T15:55:25.618Z,61.50
2023-02-19T15:57:56.708Z,63.57
2023-02-19T16:00:32.333Z,63.15
2023-02-19T16:03:00.858Z,63.11
2023-02-19T16:05:30.833Z,63.86
2023-02-19T16:08:20.907Z,64.19
2023-02-19T16:10:56.792Z,65.08
2023-02-19T16:13:26.423Z,65.43
2023-02-19T16:16:00.647Z,65.84
2023-02-19T16:18:29.249Z,65.02
2023-02-19T16:20:57.635Z,65.08
2023-02-19T16:23:27.489Z,66.01
2023-02-19T16:26:00.284Z,66.60
2023-02-19T16:28:29.733Z,66.06
2023-02-19T16:31:00.786Z,66.32
2023-02-19T16:33:41.388Z,65.75
2023-02-19T16:36:37.345Z,67.13
2023-02-19T16:39:17.032Z,67.90
2023-02-19T16:42:15.574Z,68.09
2023-02-19T16:44:48.197Z,67.63
2023-02-19T16:47:26.522Z,68.30
2023-02-19T16:49:55.697Z,67.66
2023-02-19T16:52:24.032Z,67.76
2023-02-19T16:54:52.364Z,68.31
2023-02-19T16:57:21.677Z,68.73
2023-02-19T16:59:50.589Z,67.92
2023-02-19T17:02:22.758Z,68.66
2023-02-19T17:04:55.116Z,67.60
2023-02-19T17:07:23.704Z,67.17
2023-02-19T17:09:52.036Z,67.75
2023-02-19T17:12:24.446Z,66.91
2023-02-19T17:14:52.890Z,66.45
2023-02-19T17:17:22.713Z,66.89
2023-02-19T17:19:51.012Z,67.10
2023-02-19T17:22:19.685Z,66.67
2023-02-19T17:24:48.416Z,66.80
2023-02-19T17:27:16.720Z,65.97
2023-02-19T17:29:45.055Z,67.62
2023-02-19T17:32:14.568Z,67.78
2023-02-19T17:34:44.793Z,68.87
2023-02-19T17:37:13.030Z,67.91
2023-02-19T17:39:41.668Z,68.03
2023-02-19T17:42:10.101Z,67.42
2023-02-19T17:44:38.475Z,67.59
2023-02-19T17:47:07.335Z,67.48
2023-02-19T17:49:36.451Z,67.76
2023-02-19T17:52:07.048Z,67.80
2023-02-19T17:54:35.464Z,67.45
2023-02-19T17:57:03.924Z,68.57
2023-02-19T17:59:32.344Z,69.27
2023-02-19T18:02:02.071Z,68.81
2023-02-19T18:04:30.375Z,69.82
2023-02-19T18:06:59.187Z,69.20
2023-02-19T18:09:28.887Z,68.84
2023-02-19T18:11:57.247Z,68.69
2023-02-19T18:14:25.546Z,69.54
2023-02-19T18:16:54.026Z,70.13
2023-02-19T18:19:23.032Z,69.84
2023-02-19T18:21:51.481Z,69.29
2023-02-19T18:24:20.390Z,69.64
2023-02-19T18:26:50.566Z,69.42
2023-02-19T18:29:19.990Z,70.43
2023-02-19T18:31:48.546Z,70.50
2023-02-19T18:34:18.309Z,70.33
2023-02-19T18:36:46.886Z,70.78
2023-02-19T18:39:15.594Z,70.48
2023-02-19T18:41:49.365Z,71.08
2023-02-19T18:44:20.180Z,70.98
2023-02-19T18:46:48.424Z,70.47
2023-02-19T18:49:17.034Z,70.73
2023-02-19T18:51:45.498Z,70.21
2023-02-19T18:54:13.966Z,70.13
2023-02-19T18:56:43.473Z,70.05
2023-02-19T18:59:13.636Z,70.49
2023-02-19T19:01:41.916Z,70.02
2023-02-19T19:04:10.277Z,70.89
2023-02-19T19:06:38.400Z,70.65
2023-02-19T19:09:07.140Z,71.30
2023-02-19T19:11:35.814Z,71.08
2023-02-19T19:14:04.095Z,71.15
2023-02-19T19:16:33.636Z,70.73
2023-02-19T19:19:01.895Z,71.06
2023-02-19T19:21:30.725Z,71.74
2023-02-19T19:23:59.016Z,71.45
2023-02-19T19:26:27.367Z,71.09
2023-02-19T19:28:55.480Z,71.45
2023-02-19T19:31:24.820Z,71.65
2023-02-19T19:33:54.440Z,71.33
2023-02-19T19:36:23.959Z,71.84
2023-02-19T19:38:52.536Z,71.62
2023-02-19T19:41:21.692Z,71.50
2023-02-19T19:43:49.992Z,71.67
2023-02-19T19:46:19.893Z,72.36
2023-02-19T19:48:48.674Z,72.13
2023-02-19T19:51:18.554Z,71.60
2023-02-19T19:53:48.414Z,72.17
2023-02-19T19:56:17.146Z,73.45
2023-02-19T19:58:45.529Z,73.09
2023-02-19T20:01:15.214Z,72.31
2023-02-19T20:03:43.459Z,72.86
2023-02-19T20:06:11.722Z,72.34
2023-02-19T20:08:42.127Z,72.47
2023-02-19T20:11:10.767Z,73.19
2023-02-19T20:13:39.902Z,72.94
2023-02-19T20:16:11.072Z,73.38
2023-02-19T20:18:39.569Z,73.11
2023-02-19T20:21:09.247Z,72.87
2023-02-19T20:23:39.194Z,73.13
2023-02-19T20:26:09.222Z,72.90
2023-02-19T20:28:37.845Z,73.70
2023-02-19T20:31:06.589Z,73.82
2023-02-19T20:33:35.135Z,73.22
2023-02-19T20:36:03.578Z,73.72
2023-02-19T20:38:32.050Z,73.02
2023-02-19T20:41:00.684Z,73.76
2023-02-19T20:43:30.398Z,73.49
2023-02-19T20:45:59.531Z,73.79
2023-02-19T20:48:27.811Z,73.83
2023-02-19T20:50:59.545Z,74.10
2023-02-19T20:53:28.346Z,73.74
2023-02-19T20:55:57.513Z,74.12
2023-02-19T20:58:26.676Z,73.87
2023-02-19T21:00:56.815Z,74.01
2023-02-19T21:03:26.134Z,73.80
2023-02-19T21:05:54.568Z,73.30
2023-02-19T21:08:22.928Z,74.48
2023-02-19T21:10:51.164Z,74.64
2023-02-19T21:13:23.596Z,74.61
2023-02-19T21:15:52.120Z,74.80
2023-02-19T21:18:21.966Z,74.65
2023-02-19T21:20:50.387Z,73.63
2023-02-19T21:23:18.791Z,74.11
2023-02-19T21:25:47.128Z,74.10
2023-02-19T21:28:15.573Z,74.02
2023-02-19T21:30:44.004Z,74.17
2023-02-19T21:33:12.408Z,74.46
2023-02-19T21:35:42.002Z,73.73
2023-02-19T21:38:12.141Z,74.50
2023-02-19T21:40:40.808Z,75.21
2023-02-19T21:43:09.308Z,75.40
2023-02-19T21:45:37.665Z,74.64
2023-02-19T21:48:06.668Z,74.84
2023-02-19T21:50:35.068Z,74.42
2023-02-19T21:53:05.653Z,74.92
2023-02-19T21:55:34.673Z,74.15
2023-02-19T21:58:03.185Z,74.85
2023-02-19T22:00:32.390Z,74.46
2023-02-19T22:03:01.139Z,75.14
2023-02-19T22:05:29.600Z,75.32
2023-02-19T22:07:59.229Z,75.68
2023-02-19T22:10:29.034Z,75.75
2023-02-19T22:12:57.335Z,75.11
2023-02-19T22:15:25.566Z,75.87
2023-02-19T22:17:53.907Z,75.13
2023-02-19T22:20:22.304Z,76.30
2023-02-19T22:22:50.729Z,75.75
2023-02-19T22:25:19.308Z,75.72
2023-02-19T22:27:50.704Z,75.28
2023-02-19T22:30:19.272Z,75.81
2023-02-19T22:32:47.560Z,75.68
2023-02-19T22:35:16.056Z,76.63
2023-02-19T22:37:44.369Z,76.27
2023-02-19T22:40:13.620Z,76.65
2023-02-19T22:42:42.048Z,76.78
2023-02-19T22:45:13.472Z,76.96
2023-02-19T22:47:42.198Z,77.22
2023-02-19T22:50:18.551Z,76.70
2023-02-19T22:52:46.980Z,76.21
2023-02-19T22:55:16.222Z,77.29
2023-02-19T22:57:44.529Z,77.20
2023-02-19T23:00:20.917Z,76.15
2023-02-19T23:02:49.269Z,76.88
2023-02-19T23:05:18.039Z,77.26
2023-02-19T23:07:46.580Z,77.42
2023-02-19T23:10:15.203Z,77.19
2023-02-19T23:12:43.649Z,77.33
2023-02-19T23:15:12.807Z,77.88
2023-02-19T23:17:42.659Z,77.44
2023-02-19T23:20:11.530Z,77.74
2023-02-19T23:22:40.060Z,77.18
2023-02-19T23:25:09.128Z,77.86
2023-02-19T23:27:37.381Z,77.19
2023-02-19T23:30:07.171Z,77.36
2023-02-19T23:32:35.526Z,77.33
2023-02-19T23:35:05.516Z,77.65
2023-02-19T23:37:33.760Z,77.55
2023-02-19T23:40:02.107Z,77.11
2023-02-19T23:42:31.523Z,77.10
2023-02-19T23:44:59.871Z,77.12
2023-02-19T23:47:30.654Z,77.87
2023-02-19T23:49:59.729Z,77.57
2023-02-19T23:52:29.491Z,78.04
2023-02-19T23:54:57.847Z,77.02
2023-02-19T23:57:26.127Z,77.48
2023-02-19T23:59:55.218Z,77.51
